sensor_id;sensor_type;location;lat;lon;timestamp;P1;durP1;ratioP1;P2;durP2;ratioP2
23129;SDS011;11734;51.046;13.778;2023-04-24T00:01:46;3.60;;;3.00;;
23129;SDS011;11734;51.046;13.778;2023-04-24T00:04:13;3.50;;;3.20;;
23129;SDS011;11734;51.046;13.778;2023-04-24T00:06:43;3.37;;;2.93;;
23129;SDS011;11734;51.046;13.778;2023-04-24T00:09:10;4.40;;;3.43;;
23129;SDS011;11734;51.046;13.778;2023-04-24T00:11:37;3.90;;;3.50;;
23129;SDS011;11734;51.046;13.778;2023-04-24T00:14:05;3.43;;;3.13;;
23129;SDS011;11734;51.046;13.778;2023-04-24T00:16:32;3.97;;;3.57;;
23129;SDS011;11734;51.046;13.778;2023-04-24T00:18:59;3.90;;;3.33;;
23129;SDS011;11734;51.046;13.778;2023-04-24T00:21:27;3.37;;;3.07;;
23129;SDS011;11734;51.046;13.778;2023-04-24T00:23:54;3.93;;;3.50;;
23129;SDS011;11734;51.046;13.778;2023-04-24T00:26:21;3.13;;;2.93;;
23129;SDS011;11734;51.046;13.778;2023-04-24T00:28:49;3.50;;;3.13;;
23129;SDS011;11734;51.046;13.778;2023-04-24T00:31:18;3.30;;;3.00;;
23129;SDS011;11734;51.046;13.778;2023-04-24T00:33:46;3.37;;;3.07;;
23129;SDS011;11734;51.046;13.778;2023-04-24T00:36:13;3.93;;;3.53;;
23129;SDS011;11734;51.046;13.778;2023-04-24T00:38:41;4.47;;;3.60;;
23129;SDS011;11734;51.046;13.778;2023-04-24T00:41:08;3.80;;;3.40;;
23129;SDS011;11734;51.046;13.778;2023-04-24T00:43:36;3.90;;;3.50;;
23129;SDS011;11734;51.046;13.778;2023-04-24T00:46:03;3.57;;;3.27;;
23129;SDS011;11734;51.046;13.778;2023-04-24T00:48:30;4.10;;;3.40;;
23129;SDS011;11734;51.046;13.778;2023-04-24T00:50:58;3.40;;;3.10;;
23129;SDS011;11734;51.046;13.778;2023-04-24T00:53:25;4.57;;;3.53;;
23129;SDS011;11734;51.046;13.778;2023-04-24T00:55:53;3.97;;;3.27;;
23129;SDS011;11734;51.046;13.778;2023-04-24T00:58:20;3.70;;;3.40;;
23129;SDS011;11734;51.046;13.778;2023-04-24T01:00:51;4.17;;;3.10;;
23129;SDS011;11734;51.046;13.778;2023-04-24T01:03:20;3.70;;;3.40;;
23129;SDS011;11734;51.046;13.778;2023-04-24T01:05:49;4.03;;;3.63;;
23129;SDS011;11734;51.046;13.778;2023-04-24T01:08:16;4.33;;;3.63;;
23129;SDS011;11734;51.046;13.778;2023-04-24T01:10:44;4.57;;;3.77;;
23129;SDS011;11734;51.046;13.778;2023-04-24T01:13:12;3.63;;;3.33;;
23129;SDS011;11734;51.046;13.778;2023-04-24T01:15:42;4.60;;;3.23;;
23129;SDS011;11734;51.046;13.778;2023-04-24T01:18:09;4.47;;;3.20;;
23129;SDS011;11734;51.046;13.778;2023-04-24T01:20:37;3.40;;;3.10;;
23129;SDS011;11734;51.046;13.778;2023-04-24T01:23:06;4.23;;;3.27;;
23129;SDS011;11734;51.046;13.778;2023-04-24T01:25:34;4.03;;;3.40;;
23129;SDS011;11734;51.046;13.778;2023-04-24T01:28:01;3.67;;;3.30;;
23129;SDS011;11734;51.046;13.778;2023-04-24T01:30:30;3.77;;;3.37;;
23129;SDS011;11734;51.046;13.778;2023-04-24T01:32:57;4.00;;;3.43;;
23129;SDS011;11734;51.046;13.778;2023-04-24T01:35:26;3.40;;;3.10;;
23129;SDS011;11734;51.046;13.778;2023-04-24T01:37:54;3.83;;;3.50;;
23129;SDS011;11734;51.046;13.778;2023-04-24T01:40:21;3.87;;;3.50;;
23129;SDS011;11734;51.046;13.778;2023-04-24T01:42:48;3.93;;;3.57;;
23129;SDS011;11734;51.046;13.778;2023-04-24T01:45:15;5.77;;;3.67;;
23129;SDS011;11734;51.046;13.778;2023-04-24T01:47:43;4.87;;;3.73;;
23129;SDS011;11734;51.046;13.778;2023-04-24T01:50:11;3.90;;;3.60;;
23129;SDS011;11734;51.046;13.778;2023-04-24T01:52:38;3.50;;;3.13;;
23129;SDS011;11734;51.046;13.778;2023-04-24T01:55:05;4.70;;;3.90;;
23129;SDS011;11734;51.046;13.778;2023-04-24T01:57:33;4.07;;;3.27;;
23129;SDS011;11734;51.046;13.778;2023-04-24T02:00:01;4.03;;;3.57;;
23129;SDS011;11734;51.046;13.778;2023-04-24T02:02:50;4.73;;;3.90;;
23129;SDS011;11734;51.046;13.778;2023-04-24T02:05:17;4.83;;;3.83;;
23129;SDS011;11734;51.046;13.778;2023-04-24T02:07:45;4.97;;;3.60;;
23129;SDS011;11734;51.046;13.778;2023-04-24T02:10:12;4.07;;;3.63;;
23129;SDS011;11734;51.046;13.778;2023-04-24T02:12:42;3.97;;;3.60;;
23129;SDS011;11734;51.046;13.778;2023-04-24T02:15:09;4.50;;;4.10;;
23129;SDS011;11734;51.046;13.778;2023-04-24T02:17:37;4.50;;;4.00;;
23129;SDS011;11734;51.046;13.778;2023-04-24T02:20:05;4.30;;;3.90;;
23129;SDS011;11734;51.046;13.778;2023-04-24T02:22:32;6.37;;;4.10;;
23129;SDS011;11734;51.046;13.778;2023-04-24T02:25:01;5.33;;;4.00;;
23129;SDS011;11734;51.046;13.778;2023-04-24T02:27:28;4.00;;;3.60;;
23129;SDS011;11734;51.046;13.778;2023-04-24T02:29:55;4.47;;;3.80;;
23129;SDS011;11734;51.046;13.778;2023-04-24T02:32:23;4.70;;;4.23;;
23129;SDS011;11734;51.046;13.778;2023-04-24T02:34:50;4.20;;;3.80;;
23129;SDS011;11734;51.046;13.778;2023-04-24T02:37:18;4.87;;;3.77;;
23129;SDS011;11734;51.046;13.778;2023-04-24T02:39:46;4.63;;;4.23;;
23129;SDS011;11734;51.046;13.778;2023-04-24T02:42:13;4.90;;;3.70;;
23129;SDS011;11734;51.046;13.778;2023-04-24T02:44:41;4.93;;;4.00;;
23129;SDS011;11734;51.046;13.778;2023-04-24T02:47:09;4.30;;;3.90;;
23129;SDS011;11734;51.046;13.778;2023-04-24T02:49:36;5.13;;;4.00;;
23129;SDS011;11734;51.046;13.778;2023-04-24T02:52:04;4.40;;;4.00;;
23129;SDS011;11734;51.046;13.778;2023-04-24T02:54:31;4.40;;;4.00;;
23129;SDS011;11734;51.046;13.778;2023-04-24T02:56:59;4.13;;;3.70;;
23129;SDS011;11734;51.046;13.778;2023-04-24T02:59:27;3.80;;;3.47;;
23129;SDS011;11734;51.046;13.778;2023-04-24T03:01:55;4.50;;;4.07;;
23129;SDS011;11734;51.046;13.778;2023-04-24T03:04:22;4.93;;;3.80;;
23129;SDS011;11734;51.046;13.778;2023-04-24T03:06:49;4.60;;;4.20;;
23129;SDS011;11734;51.046;13.778;2023-04-24T03:09:19;4.77;;;4.30;;
23129;SDS011;11734;51.046;13.778;2023-04-24T03:11:47;4.77;;;3.90;;
23129;SDS011;11734;51.046;13.778;2023-04-24T03:14:15;4.10;;;3.70;;
23129;SDS011;11734;51.046;13.778;2023-04-24T03:16:43;4.33;;;3.93;;
23129;SDS011;11734;51.046;13.778;2023-04-24T03:19:10;4.07;;;3.67;;
23129;SDS011;11734;51.046;13.778;2023-04-24T03:21:51;4.20;;;3.80;;
23129;SDS011;11734;51.046;13.778;2023-04-24T03:24:18;4.60;;;4.17;;
23129;SDS011;11734;51.046;13.778;2023-04-24T03:26:47;4.63;;;4.10;;
23129;SDS011;11734;51.046;13.778;2023-04-24T03:29:31;4.33;;;3.93;;
23129;SDS011;11734;51.046;13.778;2023-04-24T03:31:59;4.77;;;3.70;;
23129;SDS011;11734;51.046;13.778;2023-04-24T03:34:27;4.87;;;3.90;;
23129;SDS011;11734;51.046;13.778;2023-04-24T03:36:55;4.80;;;4.30;;
23129;SDS011;11734;51.046;13.778;2023-04-24T03:39:23;5.00;;;4.07;;
23129;SDS011;11734;51.046;13.778;2023-04-24T03:41:54;4.33;;;3.90;;
23129;SDS011;11734;51.046;13.778;2023-04-24T03:44:29;5.77;;;4.20;;
23129;SDS011;11734;51.046;13.778;2023-04-24T03:46:57;5.13;;;4.40;;
23129;SDS011;11734;51.046;13.778;2023-04-24T03:49:25;4.63;;;4.00;;
23129;SDS011;11734;51.046;13.778;2023-04-24T03:51:54;4.87;;;3.73;;
23129;SDS011;11734;51.046;13.778;2023-04-24T03:54:24;4.33;;;3.93;;
23129;SDS011;11734;51.046;13.778;2023-04-24T03:56:52;5.10;;;3.93;;
23129;SDS011;11734;51.046;13.778;2023-04-24T03:59:21;5.30;;;4.80;;
23129;SDS011;11734;51.046;13.778;2023-04-24T04:02:03;3.93;;;3.40;;
23129;SDS011;11734;51.046;13.778;2023-04-24T04:04:31;4.27;;;3.53;;
23129;SDS011;11734;51.046;13.778;2023-04-24T04:06:59;4.10;;;3.43;;
23129;SDS011;11734;51.046;13.778;2023-04-24T04:09:29;4.40;;;4.00;;
23129;SDS011;11734;51.046;13.778;2023-04-24T04:11:57;3.70;;;3.40;;
23129;SDS011;11734;51.046;13.778;2023-04-24T04:14:24;3.50;;;3.20;;
23129;SDS011;11734;51.046;13.778;2023-04-24T04:16:52;3.60;;;3.30;;
23129;SDS011;11734;51.046;13.778;2023-04-24T04:19:20;4.33;;;3.60;;
23129;SDS011;11734;51.046;13.778;2023-04-24T04:21:48;3.33;;;3.03;;
23129;SDS011;11734;51.046;13.778;2023-04-24T04:24:32;5.70;;;4.20;;
23129;SDS011;11734;51.046;13.778;2023-04-24T04:27:00;3.63;;;2.93;;
23129;SDS011;11734;51.046;13.778;2023-04-24T04:29:31;5.63;;;3.20;;
23129;SDS011;11734;51.046;13.778;2023-04-24T04:32:00;3.50;;;2.63;;
23129;SDS011;11734;51.046;13.778;2023-04-24T04:34:27;2.03;;;1.93;;
23129;SDS011;11734;51.046;13.778;2023-04-24T04:36:55;2.73;;;2.53;;
23129;SDS011;11734;51.046;13.778;2023-04-24T04:39:49;1.80;;;1.70;;
23129;SDS011;11734;51.046;13.778;2023-04-24T04:42:19;2.27;;;1.70;;
23129;SDS011;11734;51.046;13.778;2023-04-24T04:44:48;3.03;;;2.10;;
23129;SDS011;11734;51.046;13.778;2023-04-24T04:47:20;2.33;;;2.13;;
23129;SDS011;11734;51.046;13.778;2023-04-24T04:49:50;2.73;;;2.10;;
23129;SDS011;11734;51.046;13.778;2023-04-24T04:52:22;2.63;;;2.43;;
23129;SDS011;11734;51.046;13.778;2023-04-24T04:54:57;3.20;;;2.50;;
23129;SDS011;11734;51.046;13.778;2023-04-24T04:57:36;2.83;;;2.20;;
23129;SDS011;11734;51.046;13.778;2023-04-24T05:00:04;2.30;;;2.10;;
23129;SDS011;11734;51.046;13.778;2023-04-24T05:02:43;2.10;;;2.00;;
23129;SDS011;11734;51.046;13.778;2023-04-24T05:05:10;1.80;;;1.57;;
23129;SDS011;11734;51.046;13.778;2023-04-24T05:07:38;1.70;;;1.60;;
23129;SDS011;11734;51.046;13.778;2023-04-24T05:10:06;3.27;;;1.70;;
23129;SDS011;11734;51.046;13.778;2023-04-24T05:12:33;2.27;;;1.87;;
23129;SDS011;11734;51.046;13.778;2023-04-24T05:15:02;1.60;;;1.50;;
23129;SDS011;11734;51.046;13.778;2023-04-24T05:17:30;1.80;;;1.70;;
23129;SDS011;11734;51.046;13.778;2023-04-24T05:19:58;2.07;;;1.87;;
23129;SDS011;11734;51.046;13.778;2023-04-24T05:22:27;1.97;;;1.77;;
23129;SDS011;11734;51.046;13.778;2023-04-24T05:24:55;1.93;;;1.83;;
23129;SDS011;11734;51.046;13.778;2023-04-24T05:27:36;1.77;;;1.60;;
23129;SDS011;11734;51.046;13.778;2023-04-24T05:30:09;2.50;;;2.30;;
23129;SDS011;11734;51.046;13.778;2023-04-24T05:32:37;2.13;;;1.93;;
23129;SDS011;11734;51.046;13.778;2023-04-24T05:35:04;2.37;;;2.07;;
23129;SDS011;11734;51.046;13.778;2023-04-24T05:37:32;1.93;;;1.83;;
23129;SDS011;11734;51.046;13.778;2023-04-24T05:40:00;2.33;;;2.13;;
23129;SDS011;11734;51.046;13.778;2023-04-24T05:42:28;2.33;;;2.10;;
23129;SDS011;11734;51.046;13.778;2023-04-24T05:44:56;3.23;;;2.20;;
23129;SDS011;11734;51.046;13.778;2023-04-24T05:47:23;1.80;;;1.70;;
23129;SDS011;11734;51.046;13.778;2023-04-24T05:49:52;2.40;;;2.17;;
23129;SDS011;11734;51.046;13.778;2023-04-24T05:52:19;2.40;;;2.00;;
23129;SDS011;11734;51.046;13.778;2023-04-24T05:54:48;2.57;;;2.03;;
23129;SDS011;11734;51.046;13.778;2023-04-24T05:57:20;2.20;;;1.80;;
23129;SDS011;11734;51.046;13.778;2023-04-24T05:59:53;2.07;;;1.83;;
23129;SDS011;11734;51.046;13.778;2023-04-24T06:02:21;1.70;;;1.60;;
23129;SDS011;11734;51.046;13.778;2023-04-24T06:04:49;1.90;;;1.60;;
23129;SDS011;11734;51.046;13.778;2023-04-24T06:07:18;1.80;;;1.70;;
23129;SDS011;11734;51.046;13.778;2023-04-24T06:09:46;1.37;;;1.27;;
23129;SDS011;11734;51.046;13.778;2023-04-24T06:12:14;2.27;;;1.70;;
23129;SDS011;11734;51.046;13.778;2023-04-24T06:14:59;2.20;;;2.00;;
23129;SDS011;11734;51.046;13.778;2023-04-24T06:17:48;1.60;;;1.27;;
23129;SDS011;11734;51.046;13.778;2023-04-24T06:20:17;1.33;;;1.23;;
23129;SDS011;11734;51.046;13.778;2023-04-24T06:22:44;1.73;;;1.30;;
23129;SDS011;11734;51.046;13.778;2023-04-24T06:25:11;1.67;;;1.10;;
23129;SDS011;11734;51.046;13.778;2023-04-24T06:27:38;1.30;;;1.20;;
23129;SDS011;11734;51.046;13.778;2023-04-24T06:30:07;1.30;;;1.20;;
23129;SDS011;11734;51.046;13.778;2023-04-24T06:32:34;1.30;;;1.20;;
23129;SDS011;11734;51.046;13.778;2023-04-24T06:35:02;1.73;;;1.13;;
23129;SDS011;11734;51.046;13.778;2023-04-24T06:37:29;1.37;;;1.27;;
23129;SDS011;11734;51.046;13.778;2023-04-24T06:39:58;1.10;;;1.00;;
23129;SDS011;11734;51.046;13.778;2023-04-24T06:42:25;1.17;;;1.10;;
23129;SDS011;11734;51.046;13.778;2023-04-24T06:44:54;1.23;;;1.13;;
23129;SDS011;11734;51.046;13.778;2023-04-24T06:47:22;1.50;;;1.40;;
23129;SDS011;11734;51.046;13.778;2023-04-24T06:49:49;1.23;;;1.13;;
23129;SDS011;11734;51.046;13.778;2023-04-24T06:52:18;1.67;;;1.10;;
23129;SDS011;11734;51.046;13.778;2023-04-24T06:54:46;1.30;;;1.20;;
23129;SDS011;11734;51.046;13.778;2023-04-24T06:57:13;1.13;;;1.03;;
23129;SDS011;11734;51.046;13.778;2023-04-24T06:59:42;0.73;;;0.73;;
23129;SDS011;11734;51.046;13.778;2023-04-24T07:02:13;1.10;;;1.00;;
23129;SDS011;11734;51.046;13.778;2023-04-24T07:04:41;1.17;;;1.00;;
23129;SDS011;11734;51.046;13.778;2023-04-24T07:07:08;0.90;;;0.90;;
23129;SDS011;11734;51.046;13.778;2023-04-24T07:09:39;1.17;;;0.83;;
23129;SDS011;11734;51.046;13.778;2023-04-24T07:12:10;2.20;;;1.23;;
23129;SDS011;11734;51.046;13.778;2023-04-24T07:14:38;0.70;;;0.70;;
23129;SDS011;11734;51.046;13.778;2023-04-24T07:17:06;1.10;;;1.10;;
23129;SDS011;11734;51.046;13.778;2023-04-24T07:19:33;1.37;;;1.27;;
23129;SDS011;11734;51.046;13.778;2023-04-24T07:22:04;1.50;;;1.30;;
23129;SDS011;11734;51.046;13.778;2023-04-24T07:24:31;0.80;;;0.80;;
23129;SDS011;11734;51.046;13.778;2023-04-24T07:26:59;1.17;;;1.07;;
23129;SDS011;11734;51.046;13.778;2023-04-24T07:29:29;1.07;;;1.07;;
23129;SDS011;11734;51.046;13.778;2023-04-24T07:31:57;1.10;;;0.80;;
23129;SDS011;11734;51.046;13.778;2023-04-24T07:34:25;1.00;;;1.00;;
23129;SDS011;11734;51.046;13.778;2023-04-24T07:36:52;0.90;;;0.90;;
23129;SDS011;11734;51.046;13.778;2023-04-24T07:39:19;0.90;;;0.90;;
23129;SDS011;11734;51.046;13.778;2023-04-24T07:41:47;1.17;;;0.97;;
23129;SDS011;11734;51.046;13.778;2023-04-24T07:44:14;1.10;;;0.80;;
23129;SDS011;11734;51.046;13.778;2023-04-24T07:46:41;0.93;;;0.93;;
23129;SDS011;11734;51.046;13.778;2023-04-24T07:49:08;1.43;;;1.33;;
23129;SDS011;11734;51.046;13.778;2023-04-24T07:51:40;0.77;;;0.77;;
23129;SDS011;11734;51.046;13.778;2023-04-24T07:54:08;1.10;;;1.00;;
23129;SDS011;11734;51.046;13.778;2023-04-24T07:56:35;0.97;;;0.97;;
23129;SDS011;11734;51.046;13.778;2023-04-24T07:59:05;0.80;;;0.80;;
23129;SDS011;11734;51.046;13.778;2023-04-24T08:01:32;0.83;;;0.83;;
23129;SDS011;11734;51.046;13.778;2023-04-24T08:04:00;0.70;;;0.70;;
23129;SDS011;11734;51.046;13.778;2023-04-24T08:06:27;0.90;;;0.90;;
23129;SDS011;11734;51.046;13.778;2023-04-24T08:08:57;0.77;;;0.77;;
23129;SDS011;11734;51.046;13.778;2023-04-24T08:11:25;0.93;;;0.83;;
23129;SDS011;11734;51.046;13.778;2023-04-24T08:13:52;0.80;;;0.80;;
23129;SDS011;11734;51.046;13.778;2023-04-24T08:16:21;0.60;;;0.60;;
23129;SDS011;11734;51.046;13.778;2023-04-24T08:18:50;1.37;;;0.90;;
23129;SDS011;11734;51.046;13.778;2023-04-24T08:21:18;1.20;;;1.10;;
23129;SDS011;11734;51.046;13.778;2023-04-24T08:23:47;0.80;;;0.80;;
23129;SDS011;11734;51.046;13.778;2023-04-24T08:26:14;1.03;;;0.97;;
23129;SDS011;11734;51.046;13.778;2023-04-24T08:28:41;1.10;;;0.90;;
23129;SDS011;11734;51.046;13.778;2023-04-24T08:31:09;0.97;;;0.97;;
23129;SDS011;11734;51.046;13.778;2023-04-24T08:33:36;1.43;;;1.07;;
23129;SDS011;11734;51.046;13.778;2023-04-24T08:36:04;1.10;;;1.10;;
23129;SDS011;11734;51.046;13.778;2023-04-24T08:38:32;1.10;;;0.90;;
23129;SDS011;11734;51.046;13.778;2023-04-24T08:41:02;0.73;;;0.73;;
23129;SDS011;11734;51.046;13.778;2023-04-24T08:43:30;1.37;;;1.00;;
23129;SDS011;11734;51.046;13.778;2023-04-24T08:46:00;2.13;;;0.80;;
23129;SDS011;11734;51.046;13.778;2023-04-24T08:48:32;1.83;;;0.80;;
23129;SDS011;11734;51.046;13.778;2023-04-24T08:50:59;0.90;;;0.90;;
23129;SDS011;11734;51.046;13.778;2023-04-24T08:53:28;1.10;;;1.10;;
23129;SDS011;11734;51.046;13.778;2023-04-24T08:55:56;0.80;;;0.80;;
23129;SDS011;11734;51.046;13.778;2023-04-24T08:58:26;1.00;;;1.00;;
23129;SDS011;11734;51.046;13.778;2023-04-24T09:00:54;1.07;;;0.97;;
23129;SDS011;11734;51.046;13.778;2023-04-24T09:03:24;0.93;;;0.93;;
23129;SDS011;11734;51.046;13.778;2023-04-24T09:05:51;0.80;;;0.80;;
23129;SDS011;11734;51.046;13.778;2023-04-24T09:08:19;0.87;;;0.87;;
23129;SDS011;11734;51.046;13.778;2023-04-24T09:10:47;0.53;;;0.53;;
23129;SDS011;11734;51.046;13.778;2023-04-24T09:13:16;0.70;;;0.70;;
23129;SDS011;11734;51.046;13.778;2023-04-24T09:15:44;0.63;;;0.63;;
23129;SDS011;11734;51.046;13.778;2023-04-24T09:18:11;1.37;;;0.80;;
23129;SDS011;11734;51.046;13.778;2023-04-24T09:20:57;0.93;;;0.93;;
23129;SDS011;11734;51.046;13.778;2023-04-24T09:23:26;0.97;;;0.87;;
23129;SDS011;11734;51.046;13.778;2023-04-24T09:25:56;0.80;;;0.80;;
23129;SDS011;11734;51.046;13.778;2023-04-24T09:28:29;1.00;;;1.00;;
23129;SDS011;11734;51.046;13.778;2023-04-24T09:31:09;1.17;;;0.87;;
23129;SDS011;11734;51.046;13.778;2023-04-24T09:33:37;0.77;;;0.70;;
23129;SDS011;11734;51.046;13.778;2023-04-24T09:36:04;1.00;;;0.90;;
23129;SDS011;11734;51.046;13.778;2023-04-24T09:38:35;0.60;;;0.60;;
23129;SDS011;11734;51.046;13.778;2023-04-24T09:41:07;0.50;;;0.50;;
23129;SDS011;11734;51.046;13.778;2023-04-24T09:43:35;0.50;;;0.50;;
23129;SDS011;11734;51.046;13.778;2023-04-24T09:46:06;2.00;;;0.70;;
23129;SDS011;11734;51.046;13.778;2023-04-24T09:48:36;0.60;;;0.60;;
23129;SDS011;11734;51.046;13.778;2023-04-24T09:51:05;1.57;;;1.10;;
23129;SDS011;11734;51.046;13.778;2023-04-24T09:53:37;0.73;;;0.60;;
23129;SDS011;11734;51.046;13.778;2023-04-24T09:56:12;0.93;;;0.93;;
23129;SDS011;11734;51.046;13.778;2023-04-24T09:58:39;0.80;;;0.80;;
23129;SDS011;11734;51.046;13.778;2023-04-24T10:01:07;1.90;;;0.80;;
23129;SDS011;11734;51.046;13.778;2023-04-24T10:03:34;0.93;;;0.93;;
23129;SDS011;11734;51.046;13.778;2023-04-24T10:06:02;0.57;;;0.57;;
23129;SDS011;11734;51.046;13.778;2023-04-24T10:08:36;0.93;;;0.93;;
23129;SDS011;11734;51.046;13.778;2023-04-24T10:11:04;1.00;;;0.90;;
23129;SDS011;11734;51.046;13.778;2023-04-24T10:13:33;1.03;;;0.80;;
23129;SDS011;11734;51.046;13.778;2023-04-24T10:16:01;1.30;;;1.20;;
23129;SDS011;11734;51.046;13.778;2023-04-24T10:18:31;0.90;;;0.90;;
23129;SDS011;11734;51.046;13.778;2023-04-24T10:20:59;0.87;;;0.83;;
23129;SDS011;11734;51.046;13.778;2023-04-24T10:23:27;0.90;;;0.90;;
23129;SDS011;11734;51.046;13.778;2023-04-24T10:25:55;0.90;;;0.77;;
23129;SDS011;11734;51.046;13.778;2023-04-24T10:28:23;1.10;;;1.10;;
23129;SDS011;11734;51.046;13.778;2023-04-24T10:30:51;1.40;;;1.10;;
23129;SDS011;11734;51.046;13.778;2023-04-24T10:33:21;1.03;;;0.70;;
23129;SDS011;11734;51.046;13.778;2023-04-24T10:35:49;0.67;;;0.67;;
23129;SDS011;11734;51.046;13.778;2023-04-24T10:38:18;1.30;;;0.90;;
23129;SDS011;11734;51.046;13.778;2023-04-24T10:40:50;0.70;;;0.70;;
23129;SDS011;11734;51.046;13.778;2023-04-24T10:43:17;0.70;;;0.70;;
23129;SDS011;11734;51.046;13.778;2023-04-24T10:46:01;0.80;;;0.80;;
23129;SDS011;11734;51.046;13.778;2023-04-24T10:48:29;0.60;;;0.60;;
23129;SDS011;11734;51.046;13.778;2023-04-24T10:50:56;1.20;;;0.70;;
23129;SDS011;11734;51.046;13.778;2023-04-24T10:53:25;1.27;;;1.00;;
23129;SDS011;11734;51.046;13.778;2023-04-24T10:58:37;0.70;;;0.70;;
23129;SDS011;11734;51.046;13.778;2023-04-24T11:01:06;1.53;;;0.97;;
23129;SDS011;11734;51.046;13.778;2023-04-24T11:03:34;1.23;;;0.83;;
23129;SDS011;11734;51.046;13.778;2023-04-24T11:06:06;0.73;;;0.73;;
23129;SDS011;11734;51.046;13.778;2023-04-24T11:08:46;1.17;;;1.10;;
23129;SDS011;11734;51.046;13.778;2023-04-24T11:11:16;0.93;;;0.83;;
23129;SDS011;11734;51.046;13.778;2023-04-24T11:16:25;0.77;;;0.77;;
23129;SDS011;11734;51.046;13.778;2023-04-24T11:18:59;0.83;;;0.83;;
23129;SDS011;11734;51.046;13.778;2023-04-24T11:21:40;0.80;;;0.80;;
23129;SDS011;11734;51.046;13.778;2023-04-24T11:24:27;1.23;;;0.83;;
23129;SDS011;11734;51.046;13.778;2023-04-24T11:27:17;0.90;;;0.90;;
23129;SDS011;11734;51.046;13.778;2023-04-24T11:29:49;1.13;;;1.00;;
23129;SDS011;11734;51.046;13.778;2023-04-24T11:35:08;4.73;;;1.07;;
23129;SDS011;11734;51.046;13.778;2023-04-24T11:37:37;0.83;;;0.83;;
23129;SDS011;11734;51.046;13.778;2023-04-24T11:40:05;0.90;;;0.90;;
23129;SDS011;11734;51.046;13.778;2023-04-24T11:42:37;1.20;;;0.87;;
23129;SDS011;11734;51.046;13.778;2023-04-24T11:45:08;0.90;;;0.90;;
23129;SDS011;11734;51.046;13.778;2023-04-24T11:47:36;0.80;;;0.80;;
23129;SDS011;11734;51.046;13.778;2023-04-24T11:50:05;0.80;;;0.80;;
23129;SDS011;11734;51.046;13.778;2023-04-24T11:52:33;0.90;;;0.90;;
23129;SDS011;11734;51.046;13.778;2023-04-24T11:55:03;0.80;;;0.80;;
23129;SDS011;11734;51.046;13.778;2023-04-24T11:57:31;0.77;;;0.77;;
23129;SDS011;11734;51.046;13.778;2023-04-24T12:00:03;1.00;;;1.00;;
23129;SDS011;11734;51.046;13.778;2023-04-24T12:03:02;1.00;;;1.00;;
23129;SDS011;11734;51.046;13.778;2023-04-24T12:05:32;0.80;;;0.80;;
23129;SDS011;11734;51.046;13.778;2023-04-24T12:08:01;0.70;;;0.70;;
23129;SDS011;11734;51.046;13.778;2023-04-24T12:10:29;0.70;;;0.70;;
23129;SDS011;11734;51.046;13.778;2023-04-24T12:12:57;1.27;;;1.17;;
23129;SDS011;11734;51.046;13.778;2023-04-24T12:15:25;1.13;;;0.77;;
23129;SDS011;11734;51.046;13.778;2023-04-24T12:17:52;1.10;;;1.10;;
23129;SDS011;11734;51.046;13.778;2023-04-24T12:20:27;0.83;;;0.83;;
23129;SDS011;11734;51.046;13.778;2023-04-24T12:22:58;1.03;;;1.03;;
23129;SDS011;11734;51.046;13.778;2023-04-24T12:25:29;0.93;;;0.93;;
23129;SDS011;11734;51.046;13.778;2023-04-24T12:30:33;1.10;;;0.80;;
23129;SDS011;11734;51.046;13.778;2023-04-24T12:33:00;0.80;;;0.80;;
23129;SDS011;11734;51.046;13.778;2023-04-24T12:35:30;0.90;;;0.90;;
23129;SDS011;11734;51.046;13.778;2023-04-24T12:38:05;0.90;;;0.90;;
23129;SDS011;11734;51.046;13.778;2023-04-24T12:40:34;1.20;;;1.10;;
23129;SDS011;11734;51.046;13.778;2023-04-24T12:43:13;0.90;;;0.90;;
23129;SDS011;11734;51.046;13.778;2023-04-24T12:45:40;0.80;;;0.80;;
23129;SDS011;11734;51.046;13.778;2023-04-24T12:48:10;0.90;;;0.70;;
23129;SDS011;11734;51.046;13.778;2023-04-24T12:50:38;1.07;;;1.00;;
23129;SDS011;11734;51.046;13.778;2023-04-24T12:53:06;1.20;;;1.10;;
23129;SDS011;11734;51.046;13.778;2023-04-24T12:55:33;1.07;;;1.07;;
23129;SDS011;11734;51.046;13.778;2023-04-24T12:58:00;0.97;;;0.97;;
23129;SDS011;11734;51.046;13.778;2023-04-24T13:00:29;1.90;;;1.00;;
23129;SDS011;11734;51.046;13.778;2023-04-24T13:02:56;1.13;;;1.03;;
23129;SDS011;11734;51.046;13.778;2023-04-24T13:05:24;1.00;;;1.00;;
23129;SDS011;11734;51.046;13.778;2023-04-24T13:07:52;1.13;;;1.07;;
23129;SDS011;11734;51.046;13.778;2023-04-24T13:10:19;1.00;;;1.00;;
23129;SDS011;11734;51.046;13.778;2023-04-24T13:12:46;1.20;;;1.10;;
23129;SDS011;11734;51.046;13.778;2023-04-24T13:15:13;1.23;;;1.17;;
23129;SDS011;11734;51.046;13.778;2023-04-24T13:17:41;1.13;;;1.03;;
23129;SDS011;11734;51.046;13.778;2023-04-24T13:20:09;1.50;;;1.20;;
23129;SDS011;11734;51.046;13.778;2023-04-24T13:22:36;0.97;;;0.97;;
23129;SDS011;11734;51.046;13.778;2023-04-24T13:25:04;1.20;;;1.20;;
23129;SDS011;11734;51.046;13.778;2023-04-24T13:27:32;1.47;;;1.00;;
23129;SDS011;11734;51.046;13.778;2023-04-24T13:30:00;1.30;;;1.00;;
23129;SDS011;11734;51.046;13.778;2023-04-24T13:32:27;1.30;;;1.20;;
23129;SDS011;11734;51.046;13.778;2023-04-24T13:34:56;1.20;;;1.10;;
23129;SDS011;11734;51.046;13.778;2023-04-24T13:37:23;1.50;;;1.13;;
23129;SDS011;11734;51.046;13.778;2023-04-24T13:39:50;1.13;;;1.13;;
23129;SDS011;11734;51.046;13.778;2023-04-24T13:42:18;1.20;;;1.10;;
23129;SDS011;11734;51.046;13.778;2023-04-24T13:44:46;1.30;;;1.20;;
23129;SDS011;11734;51.046;13.778;2023-04-24T13:47:13;0.90;;;0.90;;
23129;SDS011;11734;51.046;13.778;2023-04-24T13:49:41;1.13;;;0.90;;
23129;SDS011;11734;51.046;13.778;2023-04-24T13:52:08;1.87;;;1.50;;
23129;SDS011;11734;51.046;13.778;2023-04-24T13:54:36;1.07;;;1.00;;
23129;SDS011;11734;51.046;13.778;2023-04-24T13:57:03;1.10;;;1.10;;
23129;SDS011;11734;51.046;13.778;2023-04-24T13:59:31;1.40;;;1.30;;
23129;SDS011;11734;51.046;13.778;2023-04-24T14:01:58;1.20;;;1.10;;
23129;SDS011;11734;51.046;13.778;2023-04-24T14:04:25;1.10;;;1.00;;
23129;SDS011;11734;51.046;13.778;2023-04-24T14:06:53;1.20;;;1.10;;
23129;SDS011;11734;51.046;13.778;2023-04-24T14:09:20;1.07;;;0.97;;
23129;SDS011;11734;51.046;13.778;2023-04-24T14:11:47;1.20;;;1.20;;
23129;SDS011;11734;51.046;13.778;2023-04-24T14:14:15;1.40;;;1.30;;
23129;SDS011;11734;51.046;13.778;2023-04-24T14:16:42;1.30;;;1.20;;
23129;SDS011;11734;51.046;13.778;2023-04-24T14:19:09;1.30;;;1.20;;
23129;SDS011;11734;51.046;13.778;2023-04-24T14:21:37;1.13;;;1.03;;
23129;SDS011;11734;51.046;13.778;2023-04-24T14:24:04;1.33;;;1.27;;
23129;SDS011;11734;51.046;13.778;2023-04-24T14:26:31;1.40;;;1.30;;
23129;SDS011;11734;51.046;13.778;2023-04-24T14:28:59;1.70;;;1.20;;
23129;SDS011;11734;51.046;13.778;2023-04-24T14:31:39;1.07;;;1.07;;
23129;SDS011;11734;51.046;13.778;2023-04-24T14:34:07;1.60;;;1.27;;
23129;SDS011;11734;51.046;13.778;2023-04-24T14:36:36;1.00;;;1.00;;
23129;SDS011;11734;51.046;13.778;2023-04-24T14:39:04;1.30;;;1.27;;
23129;SDS011;11734;51.046;13.778;2023-04-24T14:41:34;1.20;;;1.20;;
23129;SDS011;11734;51.046;13.778;2023-04-24T14:44:05;1.27;;;1.20;;
23129;SDS011;11734;51.046;13.778;2023-04-24T14:46:32;1.17;;;1.10;;
23129;SDS011;11734;51.046;13.778;2023-04-24T14:49:00;1.27;;;1.20;;
23129;SDS011;11734;51.046;13.778;2023-04-24T14:51:27;1.40;;;1.30;;
23129;SDS011;11734;51.046;13.778;2023-04-24T14:53:55;1.40;;;1.30;;
23129;SDS011;11734;51.046;13.778;2023-04-24T14:56:23;2.50;;;1.30;;